createdAt,value
2023-01-10T00:01:58.479Z,92.57
2023-01-10T00:07:00.621Z,92.54
2023-01-10T00:12:20.957Z,93.29
2023-01-10T00:17:23.307Z,93.21
2023-01-10T00:22:25.903Z,93.62
2023-01-10T00:27:27.682Z,93.62
2023-01-10T00:32:29.570Z,93.13
2023-01-10T00:37:31.468Z,93.10
2023-01-10T00:42:51.729Z,92.91
2023-01-10T00:47:53.443Z,93.28
2023-01-10T00:52:55.104Z,93.13
2023-01-10T00:57:57.089Z,92.55
2023-01-10T01:02:58.880Z,92.34
2023-01-10T01:08:00.738Z,91.63
2023-01-10T01:13:11.304Z,90.95
2023-01-10T01:18:19.168Z,91.12
2023-01-10T01:23:21.105Z,90.85
2023-01-10T01:28:23.579Z,90.44
2023-01-10T01:33:25.531Z,90.20
2023-01-10T01:38:27.405Z,90.40
2023-01-10T01:43:32.113Z,89.79
2023-01-10T01:48:39.893Z,90.21
2023-01-10T01:53:48.798Z,90.44
2023-01-10T01:58:56.488Z,90.43
2023-01-10T02:04:24.596Z,90.64
2023-01-10T02:09:33.218Z,89.93
2023-01-10T02:14:38.099Z,90.57
2023-01-10T02:19:50.889Z,90.75
2023-01-10T02:25:12.597Z,90.67
2023-01-10T02:30:36.845Z,90.98
2023-01-10T02:36:17.322Z,91.53
2023-01-10T02:41:34.915Z,92.57
2023-01-10T02:46:38.469Z,92.76
2023-01-10T02:51:40.209Z,93.90
2023-01-10T02:57:08.897Z,94.37
2023-01-10T03:02:26.446Z,95.93
2023-01-10T03:07:40.366Z,96.25
2023-01-10T03:12:51.425Z,96.48
2023-01-10T03:17:58.240Z,96.99
2023-01-10T03:23:03.595Z,96.80
2023-01-10T03:28:35.933Z,96.76
2023-01-10T03:33:38.361Z,97.01
2023-01-10T03:38:50.468Z,96.98
2023-01-10T03:44:19.818Z,96.80
2023-01-10T03:49:23.764Z,97.24
2023-01-10T03:54:25.584Z,97.63
2023-01-10T03:59:28.168Z,97.95
2023-01-10T04:04:29.817Z,98.23
2023-01-10T04:09:31.462Z,98.49
2023-01-10T04:14:33.785Z,98.39
2023-01-10T04:19:35.767Z,98.28
2023-01-10T04:24:38.076Z,98.85
2023-01-10T04:29:39.643Z,98.91
2023-01-10T04:34:41.285Z,99.06
2023-01-10T04:39:42.890Z,99.03
2023-01-10T04:44:44.528Z,99.31
2023-01-10T04:49:46.115Z,99.30
2023-01-10T04:54:47.681Z,99.48
2023-01-10T04:59:49.350Z,99.74
2023-01-10T05:04:50.970Z,100.00
2023-01-10T05:09:52.771Z,100.00
2023-01-10T05:14:54.617Z,100.00
2023-01-10T05:19:56.200Z,100.00
2023-01-10T05:24:57.990Z,99.85
2023-01-10T05:29:59.640Z,100.00
2023-01-10T05:35:01.255Z,99.61
2023-01-10T05:40:03.330Z,100.00
2023-01-10T05:45:05.872Z,99.95
2023-01-10T05:50:07.944Z,100.00
2023-01-10T05:55:09.943Z,100.00
2023-01-10T06:00:12.563Z,100.00
2023-01-10T06:05:15.105Z,99.26
2023-01-10T06:10:17.432Z,99.20
2023-01-10T06:15:19.258Z,98.77
2023-01-10T06:20:20.905Z,98.68
2023-01-10T06:25:22.567Z,98.08
2023-01-10T06:30:24.352Z,97.86
2023-01-10T06:35:26.111Z,97.66
2023-01-10T06:40:28.976Z,98.35
2023-01-10T06:45:31.179Z,98.00
2023-01-10T06:50:32.897Z,97.94
2023-01-10T06:55:34.615Z,98.10
2023-01-10T07:00:36.255Z,98.36
2023-01-10T07:05:37.957Z,97.43
2023-01-10T07:10:43.873Z,97.00
2023-01-10T07:15:45.547Z,97.24
2023-01-10T07:20:47.222Z,97.07
2023-01-10T07:25:48.952Z,96.27
2023-01-10T07:30:50.594Z,95.65
2023-01-10T07:35:52.196Z,95.50
2023-01-10T07:40:54.020Z,95.68
2023-01-10T07:45:59.055Z,95.31
2023-01-10T07:51:01.469Z,94.49
2023-01-10T07:56:04.274Z,94.24
2023-01-10T08:01:07.081Z,94.32
2023-01-10T08:06:11.105Z,93.87
2023-01-10T08:11:12.959Z,93.54
2023-01-10T08:16:15.667Z,93.25
2023-01-10T08:21:17.312Z,92.80
2023-01-10T08:26:19.241Z,92.06
2023-01-10T08:31:21.062Z,91.49
2023-01-10T08:36:22.761Z,90.88
2023-01-10T08:41:24.589Z,91.02
2023-01-10T08:46:26.314Z,90.69
2023-01-10T08:51:28.219Z,90.49
2023-01-10T08:56:30.408Z,90.32
2023-01-10T09:01:32.403Z,89.96
2023-01-10T09:06:34.118Z,89.91
2023-01-10T09:11:36.245Z,89.36
2023-01-10T09:16:38.034Z,89.80
2023-01-10T09:21:39.634Z,89.69
2023-01-10T09:26:41.814Z,89.18
2023-01-10T09:31:43.586Z,88.40
2023-01-10T09:36:45.185Z,88.44
2023-01-10T09:41:48.137Z,88.16
2023-01-10T09:47:08.451Z,87.38
2023-01-10T09:52:32.625Z,87.24
2023-01-10T09:57:34.975Z,87.70
2023-01-10T10:02:43.137Z,87.75
2023-01-10T10:07:46.069Z,87.18
2023-01-10T10:12:59.882Z,86.84
2023-01-10T10:18:18.828Z,86.75
2023-01-10T10:23:41.418Z,86.77
2023-01-10T10:28:58.119Z,86.77
2023-01-10T10:34:37.470Z,86.67
2023-01-10T10:39:41.748Z,85.72
2023-01-10T10:44:55.356Z,85.53
2023-01-10T10:50:19.914Z,85.02
2023-01-10T10:55:29.960Z,84.98
2023-01-10T11:00:32.432Z,84.45
2023-01-10T11:05:40.841Z,83.21
2023-01-10T11:10:55.407Z,84.63
2023-01-10T11:15:57.000Z,83.30
2023-01-10T11:21:15.557Z,83.43
2023-01-10T11:26:40.200Z,82.55
2023-01-10T11:31:42.710Z,83.54
2023-01-10T11:36:54.207Z,82.50
2023-01-10T11:41:57.174Z,82.42
2023-01-10T11:47:03.886Z,82.81
2023-01-10T11:52:17.607Z,81.93
2023-01-10T11:57:23.469Z,81.94
2023-01-10T12:02:35.052Z,82.27
2023-01-10T12:08:06.800Z,81.37
2023-01-10T12:13:16.577Z,82.14
2023-01-10T12:18:19.435Z,80.38
2023-01-10T12:23:24.577Z,81.47
2023-01-10T12:28:30.652Z,81.14
2023-01-10T12:33:39.374Z,81.20
2023-01-10T12:39:04.983Z,80.55
2023-01-10T12:44:22.595Z,79.43
2023-01-10T12:49:35.202Z,79.06
2023-01-10T12:54:36.998Z,78.57
2023-01-10T12:59:44.281Z,79.03
2023-01-10T13:04:53.773Z,78.12
2023-01-10T13:09:56.298Z,78.94
2023-01-10T13:15:10.045Z,78.55
2023-01-10T13:20:21.928Z,77.81
2023-01-10T13:25:37.976Z,77.73
2023-01-10T13:30:43.065Z,77.63
2023-01-10T13:35:45.173Z,76.91
2023-01-10T13:41:00.675Z,76.81
2023-01-10T13:46:17.417Z,76.13
2023-01-10T13:51:22.841Z,75.91
2023-01-10T13:56:38.602Z,75.83
2023-01-10T14:02:01.098Z,76.99
2023-01-10T14:07:21.919Z,77.42
2023-01-10T14:13:09.096Z,76.69
2023-01-10T14:18:30.217Z,77.53
2023-01-10T14:23:37.292Z,76.30
2023-01-10T14:28:41.674Z,76.52
2023-01-10T14:33:44.012Z,76.21
2023-01-10T14:38:47.500Z,76.71
2023-01-10T14:44:13.915Z,76.38
2023-01-10T14:49:28.020Z,76.88
2023-01-10T14:54:29.647Z,77.98
2023-01-10T14:59:37.946Z,78.72
2023-01-10T15:04:52.363Z,78.76
2023-01-10T15:10:02.298Z,79.43
2023-01-10T15:15:16.798Z,79.92
2023-01-10T15:20:20.570Z,80.45
2023-01-10T15:25:39.250Z,80.66
2023-01-10T15:30:42.090Z,80.21
2023-01-10T15:35:44.398Z,79.87
2023-01-10T15:40:51.583Z,80.00
2023-01-10T15:45:55.953Z,80.56
2023-01-10T15:51:26.095Z,80.86
2023-01-10T15:56:39.974Z,81.40
2023-01-10T16:01:41.732Z,81.29
2023-01-10T16:06:44.298Z,81.67
2023-01-10T16:12:07.707Z,82.54
2023-01-10T16:17:11.351Z,83.23
2023-01-10T16:22:17.903Z,83.28
2023-01-10T16:27:19.621Z,83.21
2023-01-10T16:32:21.205Z,83.26
2023-01-10T16:37:24.901Z,83.44
2023-01-10T16:42:45.059Z,83.92
2023-01-10T16:47:46.742Z,83.69
2023-01-10T16:52:48.346Z,84.00
2023-01-10T16:57:51.680Z,84.15
2023-01-10T17:02:53.542Z,84.52
2023-01-10T17:07:55.403Z,84.75
2023-01-10T17:12:57.306Z,84.92
2023-01-10T17:17:59.127Z,85.19
2023-01-10T17:23:00.813Z,85.14
2023-01-10T17:28:02.407Z,84.63
2023-01-10T17:33:05.401Z,84.83
2023-01-10T17:38:08.055Z,84.45
2023-01-10T17:43:11.303Z,84.45
2023-01-10T17:48:16.028Z,84.39
2023-01-10T17:53:18.112Z,84.52
2023-01-10T17:58:20.684Z,85.10
2023-01-10T18:03:22.754Z,85.32
2023-01-10T18:08:25.369Z,85.39
2023-01-10T18:13:31.458Z,85.14
2023-01-10T18:18:33.498Z,85.19
2023-01-10T18:23:35.394Z,85.00
2023-01-10T18:28:44.604Z,83.68
2023-01-10T18:33:47.577Z,82.72
2023-01-10T18:38:49.639Z,81.70
2023-01-10T18:43:51.351Z,81.65
2023-01-10T18:48:52.987Z,81.45
2023-01-10T18:53:54.720Z,81.55
2023-01-10T18:58:58.688Z,81.23
2023-01-10T19:04:00.268Z,81.27
2023-01-10T19:09:02.092Z,80.68
2023-01-10T19:14:04.171Z,81.00
2023-01-10T19:19:09.253Z,80.37
2023-01-10T19:24:29.060Z,79.76
2023-01-10T19:29:31.008Z,78.61
2023-01-10T19:34:32.803Z,78.01
2023-01-10T19:39:35.228Z,77.31
2023-01-10T19:44:36.875Z,76.97
2023-01-10T19:49:38.819Z,76.90
2023-01-10T19:54:40.646Z,77.27
2023-01-10T19:59:42.521Z,77.76
2023-01-10T20:04:45.422Z,78.26
2023-01-10T20:09:47.085Z,77.60
2023-01-10T20:14:51.622Z,77.48
2023-01-10T20:19:55.272Z,77.90
2023-01-10T20:24:58.132Z,78.37
2023-01-10T20:29:59.724Z,78.14
2023-01-10T20:35:01.553Z,78.43
2023-01-10T20:40:09.109Z,78.60
2023-01-10T20:45:10.979Z,78.99
2023-01-10T20:50:12.945Z,79.54
2023-01-10T20:55:15.784Z,79.87
2023-01-10T21:00:18.410Z,80.55
2023-01-10T21:05:20.203Z,81.09
2023-01-10T21:10:21.865Z,77.87
2023-01-10T21:15:23.552Z,77.94
2023-01-10T21:20:27.809Z,78.15
2023-01-10T21:25:29.598Z,78.54
2023-01-10T21:30:31.251Z,78.03
2023-01-10T21:35:33.907Z,77.83
2023-01-10T21:40:35.620Z,78.44
2023-01-10T21:45:37.283Z,78.68
2023-01-10T21:50:39.874Z,78.42
2023-01-10T21:55:43.738Z,79.30
2023-01-10T22:00:45.382Z,79.45
2023-01-10T22:05:47.243Z,79.01
2023-01-10T22:10:49.107Z,78.84
2023-01-10T22:15:57.495Z,78.80
2023-01-10T22:20:59.659Z,79.20
2023-01-10T22:26:06.949Z,78.98
2023-01-10T22:31:08.845Z,79.44
2023-01-10T22:36:16.518Z,79.63
2023-01-10T22:41:28.681Z,79.79
2023-01-10T22:46:30.580Z,79.97
2023-01-10T22:51:35.522Z,78.86
2023-01-10T22:56:37.354Z,78.95
2023-01-10T23:01:39.768Z,78.20
2023-01-10T23:06:42.141Z,77.91
2023-01-10T23:11:51.219Z,78.15
2023-01-10T23:16:56.645Z,78.03
2023-01-10T23:22:01.091Z,78.41
2023-01-10T23:27:02.697Z,78.13
2023-01-10T23:32:04.593Z,77.80
2023-01-10T23:37:06.231Z,77.78
2023-01-10T23:42:08.848Z,77.53
2023-01-10T23:47:11.680Z,77.38
2023-01-10T23:52:14.944Z,78.46
2023-01-10T23:57:16.604Z,78.61
